sensor_id;sensor_type;location;lat;lon;timestamp;pressure;altitude;pressure_sealevel;temperature;humidity
55468;BME280;41332;42.702;23.200;2023-05-10T00:02:24;94223.31;;;6.89;100.00
55468;BME280;41332;42.702;23.200;2023-05-10T00:04:50;94211.53;;;6.78;100.00
55468;BME280;41332;42.702;23.200;2023-05-10T00:07:15;94210.66;;;6.82;100.00
55468;BME280;41332;42.702;23.200;2023-05-10T00:09:42;94208.06;;;6.82;100.00
55468;BME280;41332;42.702;23.200;2023-05-10T00:12:08;94208.31;;;6.81;100.00
55468;BME280;41332;42.702;23.200;2023-05-10T00:14:33;94212.78;;;6.80;100.00
55468;BME280;41332;42.702;23.200;2023-05-10T00:16:59;94203.59;;;6.69;100.00
55468;BME280;41332;42.702;23.200;2023-05-10T00:19:24;94207.06;;;6.78;100.00
55468;BME280;41332;42.702;23.200;2023-05-10T00:21:52;94209.69;;;6.78;100.00
55468;BME280;41332;42.702;23.200;2023-05-10T00:24:18;94204.44;;;6.78;100.00
55468;BME280;41332;42.702;23.200;2023-05-10T00:26:43;94202.63;;;6.79;100.00
55468;BME280;41332;42.702;23.200;2023-05-10T00:29:08;94203.03;;;6.72;100.00
55468;BME280;41332;42.702;23.200;2023-05-10T00:31:34;94184.16;;;6.75;100.00
55468;BME280;41332;42.702;23.200;2023-05-10T00:33:59;94190.69;;;6.50;100.00
55468;BME280;41332;42.702;23.200;2023-05-10T00:36:25;94189.69;;;6.59;100.00
55468;BME280;41332;42.702;23.200;2023-05-10T00:38:51;94199.94;;;6.56;100.00
55468;BME280;41332;42.702;23.200;2023-05-10T00:41:16;94188.44;;;6.57;100.00
55468;BME280;41332;42.702;23.200;2023-05-10T00:43:42;94183.41;;;6.60;100.00
55468;BME280;41332;42.702;23.200;2023-05-10T00:46:07;94180.69;;;6.66;100.00
55468;BME280;41332;42.702;23.200;2023-05-10T00:48:33;94174.53;;;6.62;100.00
55468;BME280;41332;42.702;23.200;2023-05-10T00:50:59;94175.69;;;6.55;100.00
55468;BME280;41332;42.702;23.200;2023-05-10T00:53:24;94185.38;;;6.55;100.00
55468;BME280;41332;42.702;23.200;2023-05-10T00:55:50;94181.97;;;6.40;100.00
55468;BME280;41332;42.702;23.200;2023-05-10T00:58:16;94183.22;;;6.43;100.00
55468;BME280;41332;42.702;23.200;2023-05-10T01:00:42;94181.66;;;6.56;100.00
55468;BME280;41332;42.702;23.200;2023-05-10T01:03:10;94176.44;;;6.56;100.00
55468;BME280;41332;42.702;23.200;2023-05-10T01:05:36;94183.31;;;6.52;100.00
55468;BME280;41332;42.702;23.200;2023-05-10T01:08:02;94174.34;;;6.44;100.00
55468;BME280;41332;42.702;23.200;2023-05-10T01:10:30;94177.44;;;6.46;100.00
55468;BME280;41332;42.702;23.200;2023-05-10T01:12:56;94178.69;;;6.35;100.00
55468;BME280;41332;42.702;23.200;2023-05-10T01:15:24;94163.59;;;6.46;100.00
55468;BME280;41332;42.702;23.200;2023-05-10T01:17:50;94171.25;;;6.42;100.00
55468;BME280;41332;42.702;23.200;2023-05-10T01:20:16;94162.94;;;6.40;100.00
55468;BME280;41332;42.702;23.200;2023-05-10T01:30:56;94158.59;;;6.35;100.00
55468;BME280;41332;42.702;23.200;2023-05-10T01:39:36;94154.56;;;6.29;100.00
55468;BME280;41332;42.702;23.200;2023-05-10T01:42:04;94143.44;;;6.23;100.00
55468;BME280;41332;42.702;23.200;2023-05-10T01:44:37;94146.13;;;6.18;100.00
55468;BME280;41332;42.702;23.200;2023-05-10T01:49:55;94146.63;;;6.20;100.00
55468;BME280;41332;42.702;23.200;2023-05-10T01:52:32;94146.13;;;6.18;100.00
55468;BME280;41332;42.702;23.200;2023-05-10T01:55:06;94149.88;;;6.12;100.00
55468;BME280;41332;42.702;23.200;2023-05-10T01:57:34;94150.69;;;6.13;100.00
55468;BME280;41332;42.702;23.200;2023-05-10T02:00:04;94150.28;;;6.19;100.00
55468;BME280;41332;42.702;23.200;2023-05-10T02:02:33;94147.97;;;6.18;100.00
55468;BME280;41332;42.702;23.200;2023-05-10T02:05:00;94150.38;;;6.14;100.00
55468;BME280;41332;42.702;23.200;2023-05-10T02:07:28;94155.81;;;6.18;100.00
55468;BME280;41332;42.702;23.200;2023-05-10T02:09:54;94149.63;;;6.14;100.00
55468;BME280;41332;42.702;23.200;2023-05-10T02:12:22;94147.00;;;6.14;100.00
55468;BME280;41332;42.702;23.200;2023-05-10T02:14:50;94154.84;;;6.14;100.00
55468;BME280;41332;42.702;23.200;2023-05-10T02:17:17;94147.28;;;6.12;100.00
55468;BME280;41332;42.702;23.200;2023-05-10T02:19:44;94148.56;;;6.01;100.00
55468;BME280;41332;42.702;23.200;2023-05-10T02:22:11;94144.09;;;6.01;100.00
55468;BME280;41332;42.702;23.200;2023-05-10T02:24:37;94151.69;;;5.98;100.00
55468;BME280;41332;42.702;23.200;2023-05-10T02:27:04;94146.31;;;5.94;100.00
55468;BME280;41332;42.702;23.200;2023-05-10T02:29:31;94142.63;;;5.95;100.00
55468;BME280;41332;42.702;23.200;2023-05-10T02:31:57;94146.66;;;5.73;100.00
55468;BME280;41332;42.702;23.200;2023-05-10T02:34:25;94137.00;;;5.74;100.00
55468;BME280;41332;42.702;23.200;2023-05-10T02:36:52;94131.19;;;5.63;100.00
55468;BME280;41332;42.702;23.200;2023-05-10T02:39:21;94138.22;;;5.63;98.69
55468;BME280;41332;42.702;23.200;2023-05-10T02:41:48;94136.38;;;5.49;97.15
55468;BME280;41332;42.702;23.200;2023-05-10T02:44:18;94143.97;;;5.45;96.53
55468;BME280;41332;42.702;23.200;2023-05-10T02:46:45;94146.38;;;5.28;95.93
55468;BME280;41332;42.702;23.200;2023-05-10T02:49:11;94154.44;;;5.26;97.56
55468;BME280;41332;42.702;23.200;2023-05-10T02:51:41;94144.38;;;5.20;96.46
55468;BME280;41332;42.702;23.200;2023-05-10T02:54:12;94146.78;;;5.16;94.96
55468;BME280;41332;42.702;23.200;2023-05-10T02:56:47;94144.06;;;5.07;94.82
55468;BME280;41332;42.702;23.200;2023-05-10T02:59:15;94149.59;;;5.01;94.48
55468;BME280;41332;42.702;23.200;2023-05-10T03:01:41;94153.75;;;5.02;95.64
55468;BME280;41332;42.702;23.200;2023-05-10T03:04:06;94149.59;;;5.01;95.15
55468;BME280;41332;42.702;23.200;2023-05-10T03:06:32;94145.19;;;5.01;95.94
55468;BME280;41332;42.702;23.200;2023-05-10T03:08:58;94149.06;;;5.04;95.51
55468;BME280;41332;42.702;23.200;2023-05-10T03:17:08;94157.91;;;5.03;95.89
55468;BME280;41332;42.702;23.200;2023-05-10T03:19:43;94157.34;;;5.06;95.87
55468;BME280;41332;42.702;23.200;2023-05-10T03:22:12;94163.81;;;5.08;95.18
55468;BME280;41332;42.702;23.200;2023-05-10T03:24:39;94151.53;;;4.95;94.97
55468;BME280;41332;42.702;23.200;2023-05-10T03:27:07;94163.97;;;4.98;94.56
55468;BME280;41332;42.702;23.200;2023-05-10T03:29:33;94151.22;;;4.97;95.23
55468;BME280;41332;42.702;23.200;2023-05-10T03:32:02;94164.53;;;4.95;94.23
55468;BME280;41332;42.702;23.200;2023-05-10T03:34:30;94154.88;;;4.95;94.57
55468;BME280;41332;42.702;23.200;2023-05-10T03:36:56;94162.44;;;4.97;94.91
55468;BME280;41332;42.702;23.200;2023-05-10T03:39:21;94163.41;;;5.01;95.01
55468;BME280;41332;42.702;23.200;2023-05-10T03:41:47;94151.44;;;5.00;94.95
55468;BME280;41332;42.702;23.200;2023-05-10T03:44:12;94164.69;;;5.04;94.85
55468;BME280;41332;42.702;23.200;2023-05-10T03:46:37;94160.09;;;4.95;94.48
55468;BME280;41332;42.702;23.200;2023-05-10T03:49:03;94169.75;;;4.95;95.21
55468;BME280;41332;42.702;23.200;2023-05-10T03:51:28;94179.78;;;5.02;94.61
55468;BME280;41332;42.702;23.200;2023-05-10T03:53:54;94171.50;;;5.00;94.32
55468;BME280;41332;42.702;23.200;2023-05-10T03:56:20;94176.44;;;5.01;94.39
55468;BME280;41332;42.702;23.200;2023-05-10T03:58:46;94187.69;;;4.97;95.09
55468;BME280;41332;42.702;23.200;2023-05-10T04:01:11;94181.13;;;4.99;93.44
55468;BME280;41332;42.702;23.200;2023-05-10T04:03:37;94189.00;;;4.94;93.48
55468;BME280;41332;42.702;23.200;2023-05-10T04:06:03;94179.88;;;4.97;94.67
55468;BME280;41332;42.702;23.200;2023-05-10T04:08:29;94195.28;;;4.93;93.90
55468;BME280;41332;42.702;23.200;2023-05-10T04:10:54;94193.25;;;4.90;93.81
55468;BME280;41332;42.702;23.200;2023-05-10T04:13:20;94195.84;;;4.90;94.64
55468;BME280;41332;42.702;23.200;2023-05-10T04:15:45;94193.03;;;4.86;95.02
55468;BME280;41332;42.702;23.200;2023-05-10T04:18:11;94196.13;;;4.88;94.57
55468;BME280;41332;42.702;23.200;2023-05-10T04:20:36;94197.31;;;4.96;95.34
55468;BME280;41332;42.702;23.200;2023-05-10T04:23:02;94196.53;;;4.95;94.76
55468;BME280;41332;42.702;23.200;2023-05-10T04:25:27;94196.00;;;4.99;93.99
55468;BME280;41332;42.702;23.200;2023-05-10T04:27:52;94204.41;;;4.90;92.78
55468;BME280;41332;42.702;23.200;2023-05-10T04:30:18;94198.31;;;5.00;94.94
55468;BME280;41332;42.702;23.200;2023-05-10T04:32:43;94210.81;;;4.98;95.30
55468;BME280;41332;42.702;23.200;2023-05-10T04:35:09;94200.22;;;4.94;95.10
55468;BME280;41332;42.702;23.200;2023-05-10T04:37:35;94202.88;;;4.89;95.87
55468;BME280;41332;42.702;23.200;2023-05-10T04:40:02;94204.09;;;4.97;96.31
55468;BME280;41332;42.702;23.200;2023-05-10T04:42:28;94204.16;;;4.92;96.10
55468;BME280;41332;42.702;23.200;2023-05-10T04:44:54;94204.28;;;5.01;97.05
55468;BME280;41332;42.702;23.200;2023-05-10T04:47:19;94203.06;;;4.93;95.94
55468;BME280;41332;42.702;23.200;2023-05-10T04:49:45;94196.25;;;4.78;95.25
55468;BME280;41332;42.702;23.200;2023-05-10T04:52:10;94200.97;;;4.76;96.06
55468;BME280;41332;42.702;23.200;2023-05-10T04:54:36;94208.53;;;4.72;96.20
55468;BME280;41332;42.702;23.200;2023-05-10T04:57:02;94197.53;;;4.81;96.93
55468;BME280;41332;42.702;23.200;2023-05-10T04:59:27;94208.69;;;4.81;95.21
55468;BME280;41332;42.702;23.200;2023-05-10T05:01:53;94196.53;;;4.76;95.33
55468;BME280;41332;42.702;23.200;2023-05-10T05:04:18;94204.91;;;4.92;96.88
55468;BME280;41332;42.702;23.200;2023-05-10T05:06:43;94196.34;;;4.92;96.00
55468;BME280;41332;42.702;23.200;2023-05-10T05:09:09;94207.22;;;4.94;95.63
55468;BME280;41332;42.702;23.200;2023-05-10T05:11:35;94204.22;;;4.87;95.44
55468;BME280;41332;42.702;23.200;2023-05-10T05:14:00;94231.22;;;4.91;96.12
55468;BME280;41332;42.702;23.200;2023-05-10T05:16:26;94218.38;;;5.00;97.00
55468;BME280;41332;42.702;23.200;2023-05-10T05:18:51;94209.06;;;4.93;96.68
55468;BME280;41332;42.702;23.200;2023-05-10T05:21:17;94211.97;;;4.92;96.44
55468;BME280;41332;42.702;23.200;2023-05-10T05:23:43;94216.66;;;4.90;97.23
55468;BME280;41332;42.702;23.200;2023-05-10T05:26:09;94221.16;;;5.03;97.03
55468;BME280;41332;42.702;23.200;2023-05-10T05:28:34;94231.25;;;5.10;97.12
55468;BME280;41332;42.702;23.200;2023-05-10T05:31:05;94226.25;;;4.94;98.22
55468;BME280;41332;42.702;23.200;2023-05-10T05:33:31;94240.59;;;4.92;97.95
55468;BME280;41332;42.702;23.200;2023-05-10T05:35:56;94220.19;;;4.99;97.91
55468;BME280;41332;42.702;23.200;2023-05-10T05:38:22;94228.84;;;5.14;98.64
55468;BME280;41332;42.702;23.200;2023-05-10T05:40:47;94229.41;;;5.10;97.68
55468;BME280;41332;42.702;23.200;2023-05-10T05:43:12;94225.41;;;5.18;97.58
55468;BME280;41332;42.702;23.200;2023-05-10T05:45:38;94224.06;;;5.21;98.36
55468;BME280;41332;42.702;23.200;2023-05-10T05:48:04;94232.44;;;5.18;97.46
55468;BME280;41332;42.702;23.200;2023-05-10T05:50:29;94226.13;;;5.05;99.01
55468;BME280;41332;42.702;23.200;2023-05-10T05:52:55;94210.97;;;5.07;98.50
55468;BME280;41332;42.702;23.200;2023-05-10T05:55:20;94228.06;;;5.13;97.23
55468;BME280;41332;42.702;23.200;2023-05-10T05:57:46;94232.09;;;5.05;96.43
55468;BME280;41332;42.702;23.200;2023-05-10T06:00:12;94239.19;;;5.19;98.51
55468;BME280;41332;42.702;23.200;2023-05-10T06:02:38;94248.84;;;5.18;97.75
55468;BME280;41332;42.702;23.200;2023-05-10T06:05:03;94233.53;;;5.31;97.67
55468;BME280;41332;42.702;23.200;2023-05-10T06:07:29;94241.66;;;5.29;97.03
55468;BME280;41332;42.702;23.200;2023-05-10T06:09:54;94234.97;;;5.23;97.64
55468;BME280;41332;42.702;23.200;2023-05-10T06:12:19;94244.19;;;5.34;98.19
55468;BME280;41332;42.702;23.200;2023-05-10T06:14:45;94249.75;;;5.27;98.90
55468;BME280;41332;42.702;23.200;2023-05-10T06:17:10;94242.84;;;5.37;97.90
55468;BME280;41332;42.702;23.200;2023-05-10T06:19:36;94237.63;;;5.37;98.33
55468;BME280;41332;42.702;23.200;2023-05-10T06:22:02;94234.66;;;5.43;98.29
55468;BME280;41332;42.702;23.200;2023-05-10T06:24:27;94232.56;;;5.45;97.02
55468;BME280;41332;42.702;23.200;2023-05-10T06:26:52;94248.88;;;5.51;98.99
55468;BME280;41332;42.702;23.200;2023-05-10T06:29:18;94252.13;;;5.62;98.83
55468;BME280;41332;42.702;23.200;2023-05-10T06:31:43;94252.00;;;5.53;97.88
55468;BME280;41332;42.702;23.200;2023-05-10T06:34:08;94251.41;;;5.56;99.24
55468;BME280;41332;42.702;23.200;2023-05-10T06:36:34;94255.84;;;5.56;97.80
55468;BME280;41332;42.702;23.200;2023-05-10T06:38:59;94250.50;;;5.66;98.78
55468;BME280;41332;42.702;23.200;2023-05-10T06:41:25;94251.75;;;5.69;99.84
55468;BME280;41332;42.702;23.200;2023-05-10T06:43:50;94251.75;;;5.69;97.10
55468;BME280;41332;42.702;23.200;2023-05-10T06:46:16;94252.59;;;5.64;96.95
55468;BME280;41332;42.702;23.200;2023-05-10T06:48:41;94239.16;;;5.76;97.69
55468;BME280;41332;42.702;23.200;2023-05-10T06:51:06;94244.91;;;5.73;97.02
55468;BME280;41332;42.702;23.200;2023-05-10T06:53:32;94252.06;;;5.67;95.33
55468;BME280;41332;42.702;23.200;2023-05-10T06:55:57;94254.13;;;5.84;95.24
55468;BME280;41332;42.702;23.200;2023-05-10T06:58:23;94249.22;;;5.64;95.05
55468;BME280;41332;42.702;23.200;2023-05-10T07:00:48;94257.22;;;5.86;96.42
55468;BME280;41332;42.702;23.200;2023-05-10T07:03:14;94264.25;;;5.86;95.38
55468;BME280;41332;42.702;23.200;2023-05-10T07:05:39;94253.84;;;5.86;95.71
55468;BME280;41332;42.702;23.200;2023-05-10T07:08:05;94269.78;;;5.84;94.95
55468;BME280;41332;42.702;23.200;2023-05-10T07:10:30;94268.22;;;5.83;94.21
55468;BME280;41332;42.702;23.200;2023-05-10T07:12:56;94274.41;;;5.87;96.29
55468;BME280;41332;42.702;23.200;2023-05-10T07:15:21;94260.00;;;5.76;93.51
55468;BME280;41332;42.702;23.200;2023-05-10T07:17:47;94274.13;;;5.89;94.06
55468;BME280;41332;42.702;23.200;2023-05-10T07:20:12;94274.13;;;5.89;94.02
55468;BME280;41332;42.702;23.200;2023-05-10T07:22:37;94271.44;;;5.94;92.56
55468;BME280;41332;42.702;23.200;2023-05-10T07:25:03;94258.06;;;5.82;92.60
55468;BME280;41332;42.702;23.200;2023-05-10T07:27:29;94275.56;;;5.81;92.37
55468;BME280;41332;42.702;23.200;2023-05-10T07:29:54;94266.78;;;5.91;92.35
55468;BME280;41332;42.702;23.200;2023-05-10T07:32:21;94268.97;;;6.03;93.48
55468;BME280;41332;42.702;23.200;2023-05-10T07:34:46;94264.69;;;5.93;92.36
55468;BME280;41332;42.702;23.200;2023-05-10T07:37:11;94277.50;;;6.08;92.75
55468;BME280;41332;42.702;23.200;2023-05-10T07:39:37;94275.56;;;6.14;92.26
55468;BME280;41332;42.702;23.200;2023-05-10T07:42:02;94279.81;;;6.10;91.17
55468;BME280;41332;42.702;23.200;2023-05-10T07:44:28;94283.69;;;6.13;91.70
55468;BME280;41332;42.702;23.200;2023-05-10T07:46:53;94273.94;;;6.18;91.10
55468;BME280;41332;42.702;23.200;2023-05-10T07:49:19;94277.03;;;6.20;92.42
55468;BME280;41332;42.702;23.200;2023-05-10T07:51:45;94286.25;;;6.32;92.22
55468;BME280;41332;42.702;23.200;2023-05-10T07:54:10;94272.97;;;6.14;91.42
55468;BME280;41332;42.702;23.200;2023-05-10T07:56:35;94281.19;;;6.21;91.45
55468;BME280;41332;42.702;23.200;2023-05-10T07:59:02;94278.81;;;6.39;91.19
55468;BME280;41332;42.702;23.200;2023-05-10T08:01:33;94278.41;;;6.32;90.92
55468;BME280;41332;42.702;23.200;2023-05-10T08:03:59;94278.78;;;6.25;89.15
55468;BME280;41332;42.702;23.200;2023-05-10T08:06:25;94284.91;;;6.34;90.34
55468;BME280;41332;42.702;23.200;2023-05-10T08:08:55;94291.00;;;6.43;89.67
55468;BME280;41332;42.702;23.200;2023-05-10T08:11:20;94285.44;;;6.31;90.04
55468;BME280;41332;42.702;23.200;2023-05-10T08:13:47;94286.25;;;6.46;89.70
55468;BME280;41332;42.702;23.200;2023-05-10T08:16:12;94285.69;;;6.49;89.29
55468;BME280;41332;42.702;23.200;2023-05-10T08:18:39;94282.41;;;6.71;90.04
55468;BME280;41332;42.702;23.200;2023-05-10T08:21:05;94274.97;;;6.64;89.96
55468;BME280;41332;42.702;23.200;2023-05-10T08:23:30;94278.63;;;6.77;91.55
55468;BME280;41332;42.702;23.200;2023-05-10T08:25:56;94292.47;;;6.78;89.77
55468;BME280;41332;42.702;23.200;2023-05-10T08:28:21;94290.25;;;6.85;88.48
55468;BME280;41332;42.702;23.200;2023-05-10T08:30:47;94296.91;;;6.77;89.35
55468;BME280;41332;42.702;23.200;2023-05-10T08:33:14;94282.50;;;6.66;89.44
55468;BME280;41332;42.702;23.200;2023-05-10T08:35:40;94290.31;;;6.52;89.11
55468;BME280;41332;42.702;23.200;2023-05-10T08:38:06;94288.00;;;6.50;88.31
55468;BME280;41332;42.702;23.200;2023-05-10T08:40:31;94285.47;;;6.45;89.13
55468;BME280;41332;42.702;23.200;2023-05-10T08:43:04;94285.31;;;6.55;90.25
55468;BME280;41332;42.702;23.200;2023-05-10T08:45:33;94289.28;;;6.67;90.54
55468;BME280;41332;42.702;23.200;2023-05-10T08:48:02;94295.25;;;6.67;90.37
55468;BME280;41332;42.702;23.200;2023-05-10T08:50:31;94287.72;;;6.66;89.25
55468;BME280;41332;42.702;23.200;2023-05-10T08:52:59;94290.44;;;6.74;89.79
55468;BME280;41332;42.702;23.200;2023-05-10T08:55:26;94286.66;;;6.95;90.56
55468;BME280;41332;42.702;23.200;2023-05-10T08:57:52;94289.66;;;6.74;88.84
55468;BME280;41332;42.702;23.200;2023-05-10T09:44:00;94273.56;;;7.22;87.01
55468;BME280;41332;42.702;23.200;2023-05-10T09:46:26;94287.25;;;7.42;85.61
55468;BME280;41332;42.702;23.200;2023-05-10T09:48:51;94261.41;;;7.40;85.27
55468;BME280;41332;42.702;23.200;2023-05-10T09:51:24;94272.25;;;7.34;85.16
55468;BME280;41332;42.702;23.200;2023-05-10T09:54:15;94274.97;;;7.29;85.41
55468;BME280;41332;42.702;23.200;2023-05-10T09:56:41;94269.81;;;7.51;84.45
55468;BME280;41332;42.702;23.200;2023-05-10T09:59:10;94278.78;;;7.59;83.56
55468;BME280;41332;42.702;23.200;2023-05-10T10:01:36;94276.13;;;7.73;84.46
55468;BME280;41332;42.702;23.200;2023-05-10T10:04:06;94263.69;;;7.79;83.84
55468;BME280;41332;42.702;23.200;2023-05-10T10:06:39;94267.34;;;7.69;81.74
55468;BME280;41332;42.702;23.200;2023-05-10T10:09:05;94267.22;;;7.37;82.70
55468;BME280;41332;42.702;23.200;2023-05-10T10:11:31;94257.38;;;7.57;82.42
55468;BME280;41332;42.702;23.200;2023-05-10T10:13:58;94263.94;;;7.46;82.62
55468;BME280;41332;42.702;23.200;2023-05-10T10:16:24;94249.19;;;7.72;83.01
55468;BME280;41332;42.702;23.200;2023-05-10T10:18:49;94249.25;;;7.81;83.32
55468;BME280;41332;42.702;23.200;2023-05-10T10:21:15;94260.38;;;7.87;80.63
55468;BME280;41332;42.702;23.200;2023-05-10T10:23:41;94268.63;;;7.80;82.06
55468;BME280;41332;42.702;23.200;2023-05-10T10:26:07;94259.66;;;7.72;82.65
55468;BME280;41332;42.702;23.200;2023-05-10T10:28:57;94265.00;;;7.90;82.19
55468;BME280;41332;42.702;23.200;2023-05-10T10:31:47;94261.88;;;7.79;82.37
55468;BME280;41332;42.702;23.200;2023-05-10T10:34:28;94271.19;;;7.71;82.60
55468;BME280;41332;42.702;23.200;2023-05-10T10:36:55;94260.72;;;7.71;83.52
55468;BME280;41332;42.702;23.200;2023-05-10T10:39:22;94267.25;;;7.60;82.29
55468;BME280;41332;42.702;23.200;2023-05-10T10:41:56;94270.06;;;7.64;82.44
55468;BME280;41332;42.702;23.200;2023-05-10T10:52:32;94261.56;;;7.81;83.45
55468;BME280;41332;42.702;23.200;2023-05-10T10:55:02;94271.13;;;7.85;81.47
55468;BME280;41332;42.702;23.200;2023-05-10T10:57:31;94260.84;;;7.89;82.32
55468;BME280;41332;42.702;23.200;2023-05-10T11:02:45;94263.56;;;7.84;81.50
55468;BME280;41332;42.702;23.200;2023-05-10T11:07:59;94264.81;;;7.86;83.06
55468;BME280;41332;42.702;23.200;2023-05-10T11:10:25;94253.78;;;7.89;82.02
55468;BME280;41332;42.702;23.200;2023-05-10T11:15:19;94243.97;;;7.95;80.97
55468;BME280;41332;42.702;23.200;2023-05-10T11:17:44;94249.31;;;7.90;83.36
55468;BME280;41332;42.702;23.200;2023-05-10T11:20:14;94256.00;;;8.05;81.19
55468;BME280;41332;42.702;23.200;2023-05-10T11:22:53;94251.06;;;8.03;81.55
55468;BME280;41332;42.702;23.200;2023-05-10T11:25:19;94250.88;;;8.22;82.62
55468;BME280;41332;42.702;23.200;2023-05-10T11:27:47;94241.97;;;8.01;82.24
55468;BME280;41332;42.702;23.200;2023-05-10T11:30:13;94263.03;;;7.96;81.95
55468;BME280;41332;42.702;23.200;2023-05-10T11:32:40;94255.78;;;7.92;81.47
55468;BME280;41332;42.702;23.200;2023-05-10T11:35:10;94255.19;;;7.96;81.67
55468;BME280;41332;42.702;23.200;2023-05-10T11:37:36;94262.59;;;8.02;81.88
55468;BME280;41332;42.702;23.200;2023-05-10T11:40:03;94258.47;;;8.01;81.08
55468;BME280;41332;42.702;23.200;2023-05-10T11:42:29;94247.75;;;8.12;82.24
55468;BME280;41332;42.702;23.200;2023-05-10T11:44:55;94253.66;;;8.26;81.67
55468;BME280;41332;42.702;23.200;2023-05-10T11:47:20;94246.25;;;8.19;80.43
55468;BME280;41332;42.702;23.200;2023-05-10T11:49:47;94245.28;;;8.15;80.45
55468;BME280;41332;42.702;23.200;2023-05-10T11:52:13;94238.22;;;8.16;81.56
55468;BME280;41332;42.702;23.200;2023-05-10T11:54:58;94242.84;;;8.19;81.96
55468;BME280;41332;42.702;23.200;2023-05-10T11:57:26;94245.59;;;8.14;80.07
55468;BME280;41332;42.702;23.200;2023-05-10T11:59:56;94254.09;;;8.19;81.78
55468;BME280;41332;42.702;23.200;2023-05-10T12:02:22;94251.81;;;8.27;81.82
55468;BME280;41332;42.702;23.200;2023-05-10T12:04:48;94250.19;;;8.39;81.32
55468;BME280;41332;42.702;23.200;2023-05-10T12:07:14;94244.25;;;8.48;80.41
55468;BME280;41332;42.702;23.200;2023-05-10T12:09:44;94247.50;;;8.53;80.41
55468;BME280;41332;42.702;23.200;2023-05-10T12:12:15;94249.63;;;8.51;80.26
55468;BME280;41332;42.702;23.200;2023-05-10T12:14:40;94238.00;;;8.66;80.49
55468;BME280;41332;42.702;23.200;2023-05-10T12:17:06;94242.03;;;8.81;80.74
55468;BME280;41332;42.702;23.200;2023-05-10T12:19:38;94242.91;;;8.68;79.85
55468;BME280;41332;42.702;23.200;2023-05-10T12:22:05;94239.56;;;8.45;80.80
55468;BME280;41332;42.702;23.200;2023-05-10T12:24:30;94244.91;;;8.71;81.76
55468;BME280;41332;42.702;23.200;2023-05-10T12:26:56;94246.44;;;8.54;81.96
55468;BME280;41332;42.702;23.200;2023-05-10T12:29:21;94241.03;;;8.19;81.15
55468;BME280;41332;42.702;23.200;2023-05-10T12:31:58;94229.94;;;8.22;82.47
55468;BME280;41332;42.702;23.200;2023-05-10T12:34:30;94235.91;;;8.14;82.14
55468;BME280;41332;42.702;23.200;2023-05-10T12:36:58;94219.13;;;8.15;82.53
55468;BME280;41332;42.702;23.200;2023-05-10T12:39:24;94230.69;;;8.23;83.96
55468;BME280;41332;42.702;23.200;2023-05-10T12:41:50;94224.06;;;8.17;81.85
55468;BME280;41332;42.702;23.200;2023-05-10T12:44:16;94234.28;;;8.27;81.07
55468;BME280;41332;42.702;23.200;2023-05-10T12:46:42;94234.19;;;8.09;81.23
55468;BME280;41332;42.702;23.200;2023-05-10T12:49:07;94224.19;;;8.12;82.16
55468;BME280;41332;42.702;23.200;2023-05-10T12:51:32;94216.75;;;8.05;83.22
55468;BME280;41332;42.702;23.200;2023-05-10T12:53:58;94219.28;;;8.19;83.60
55468;BME280;41332;42.702;23.200;2023-05-10T12:56:23;94217.63;;;8.23;82.88
55468;BME280;41332;42.702;23.200;2023-05-10T12:58:49;94202.41;;;8.25;82.02
55468;BME280;41332;42.702;23.200;2023-05-10T13:01:17;94210.81;;;8.13;81.25
55468;BME280;41332;42.702;23.200;2023-05-10T13:03:42;94206.88;;;8.24;82.78
55468;BME280;41332;42.702;23.200;2023-05-10T13:06:08;94192.19;;;8.15;81.38
55468;BME280;41332;42.702;23.200;2023-05-10T13:08:33;94181.38;;;8.07;80.53
55468;BME280;41332;42.702;23.200;2023-05-10T13:11:00;94188.13;;;8.00;81.11
55468;BME280;41332;42.702;23.200;2023-05-10T13:13:25;94201.19;;;8.00;82.49
55468;BME280;41332;42.702;23.200;2023-05-10T13:15:51;94203.81;;;8.00;82.07
55468;BME280;41332;42.702;23.200;2023-05-10T13:18:16;94191.72;;;7.81;83.11
55468;BME280;41332;42.702;23.200;2023-05-10T13:20:42;94188.84;;;7.91;82.36
55468;BME280;41332;42.702;23.200;2023-05-10T13:23:09;94177.03;;;7.94;82.57
55468;BME280;41332;42.702;23.200;2023-05-10T13:25:34;94185.59;;;7.86;82.72
55468;BME280;41332;42.702;23.200;2023-05-10T13:28:00;94179.59;;;7.85;83.59
55468;BME280;41332;42.702;23.200;2023-05-10T13:30:26;94174.41;;;7.94;82.49
55468;BME280;41332;42.702;23.200;2023-05-10T13:32:51;94167.97;;;8.00;81.79
55468;BME280;41332;42.702;23.200;2023-05-10T13:35:17;94176.59;;;8.01;81.81
55468;BME280;41332;42.702;23.200;2023-05-10T13:37:42;94179.69;;;8.03;81.32
55468;BME280;41332;42.702;23.200;2023-05-10T13:40:08;94167.38;;;8.03;81.40
55468;BME280;41332;42.702;23.200;2023-05-10T13:42:33;94172.34;;;8.14;81.66
55468;BME280;41332;42.702;23.200;2023-05-10T13:45:00;94177.78;;;8.26;82.13
55468;BME280;41332;42.702;23.200;2023-05-10T13:47:26;94171.47;;;8.27;81.40
55468;BME280;41332;42.702;23.200;2023-05-10T13:49:52;94170.69;;;8.27;81.30
55468;BME280;41332;42.702;23.200;2023-05-10T13:52:17;94176.09;;;8.30;81.12
55468;BME280;41332;42.702;23.200;2023-05-10T13:54:43;94172.72;;;8.30;80.38
55468;BME280;41332;42.702;23.200;2023-05-10T13:57:08;94173.06;;;8.05;80.89
55468;BME280;41332;42.702;23.200;2023-05-10T13:59:34;94182.97;;;8.17;81.54
55468;BME280;41332;42.702;23.200;2023-05-10T14:02:00;94182.03;;;8.13;81.78
55468;BME280;41332;42.702;23.200;2023-05-10T14:04:28;94176.19;;;8.16;82.64
55468;BME280;41332;42.702;23.200;2023-05-10T14:06:53;94181.03;;;8.32;81.05
55468;BME280;41332;42.702;23.200;2023-05-10T14:09:19;94181.78;;;8.23;81.38
55468;BME280;41332;42.702;23.200;2023-05-10T14:11:44;94169.41;;;8.15;81.90
55468;BME280;41332;42.702;23.200;2023-05-10T14:14:10;94178.22;;;8.19;81.34
55468;BME280;41332;42.702;23.200;2023-05-10T14:16:36;94184.59;;;8.04;81.71
55468;BME280;41332;42.702;23.200;2023-05-10T14:19:02;94176.44;;;8.06;82.15